sensor_id;sensor_type;location;lat;lon;timestamp;temperature;humidity
1367;DHT22;16877;48.810;9.282;2023-05-08T00:00:57;25.80;59.00
1367;DHT22;16877;48.810;9.282;2023-05-08T00:03:24;25.90;59.10
1367;DHT22;16877;48.810;9.282;2023-05-08T00:05:53;25.80;59.00
1367;DHT22;16877;48.810;9.282;2023-05-08T00:08:21;25.80;59.10
1367;DHT22;16877;48.810;9.282;2023-05-08T00:10:50;25.90;59.10
1367;DHT22;16877;48.810;9.282;2023-05-08T00:13:17;25.70;59.10
1367;DHT22;16877;48.810;9.282;2023-05-08T00:15:45;25.70;59.10
1367;DHT22;16877;48.810;9.282;2023-05-08T00:18:12;25.80;59.10
1367;DHT22;16877;48.810;9.282;2023-05-08T00:20:41;25.60;59.00
1367;DHT22;16877;48.810;9.282;2023-05-08T00:23:08;25.80;59.10
1367;DHT22;16877;48.810;9.282;2023-05-08T00:25:36;25.80;59.20
1367;DHT22;16877;48.810;9.282;2023-05-08T00:28:05;25.60;59.10
1367;DHT22;16877;48.810;9.282;2023-05-08T00:30:32;25.80;59.10
1367;DHT22;16877;48.810;9.282;2023-05-08T00:33:00;25.70;59.10
1367;DHT22;16877;48.810;9.282;2023-05-08T00:35:27;25.80;59.20
1367;DHT22;16877;48.810;9.282;2023-05-08T00:37:56;25.70;59.20
1367;DHT22;16877;48.810;9.282;2023-05-08T00:40:23;25.70;59.20
1367;DHT22;16877;48.810;9.282;2023-05-08T00:43:07;25.70;59.10
1367;DHT22;16877;48.810;9.282;2023-05-08T00:45:36;25.70;59.20
1367;DHT22;16877;48.810;9.282;2023-05-08T00:48:06;25.60;59.10
1367;DHT22;16877;48.810;9.282;2023-05-08T00:50:34;25.60;59.20
1367;DHT22;16877;48.810;9.282;2023-05-08T00:53:03;25.70;59.20
1367;DHT22;16877;48.810;9.282;2023-05-08T00:55:31;25.50;59.10
1367;DHT22;16877;48.810;9.282;2023-05-08T00:57:59;25.50;59.10
1367;DHT22;16877;48.810;9.282;2023-05-08T01:00:29;25.50;59.20
1367;DHT22;16877;48.810;9.282;2023-05-08T01:02:58;25.60;59.30
1367;DHT22;16877;48.810;9.282;2023-05-08T01:05:26;25.70;59.30
1367;DHT22;16877;48.810;9.282;2023-05-08T01:07:54;25.50;59.20
1367;DHT22;16877;48.810;9.282;2023-05-08T01:10:21;25.40;59.10
1367;DHT22;16877;48.810;9.282;2023-05-08T01:12:55;25.50;59.20
1367;DHT22;16877;48.810;9.282;2023-05-08T01:15:30;25.60;59.20
1367;DHT22;16877;48.810;9.282;2023-05-08T01:18:07;25.70;59.30
1367;DHT22;16877;48.810;9.282;2023-05-08T01:20:43;25.40;59.00
1367;DHT22;16877;48.810;9.282;2023-05-08T01:23:51;25.40;59.10
1367;DHT22;16877;48.810;9.282;2023-05-08T01:26:50;25.40;59.20
1367;DHT22;16877;48.810;9.282;2023-05-08T01:29:47;25.40;59.10
1367;DHT22;16877;48.810;9.282;2023-05-08T01:32:22;25.60;59.30
1367;DHT22;16877;48.810;9.282;2023-05-08T01:34:57;25.50;59.30
1367;DHT22;16877;48.810;9.282;2023-05-08T01:37:33;25.40;59.20
1367;DHT22;16877;48.810;9.282;2023-05-08T01:40:09;25.60;59.40
1367;DHT22;16877;48.810;9.282;2023-05-08T01:42:44;25.50;59.30
1367;DHT22;16877;48.810;9.282;2023-05-08T01:45:17;25.50;59.30
1367;DHT22;16877;48.810;9.282;2023-05-08T01:47:50;25.40;59.30
1367;DHT22;16877;48.810;9.282;2023-05-08T01:50:24;25.50;59.30
1367;DHT22;16877;48.810;9.282;2023-05-08T01:53:04;25.50;59.40
1367;DHT22;16877;48.810;9.282;2023-05-08T01:55:35;25.30;59.20
1367;DHT22;16877;48.810;9.282;2023-05-08T01:58:07;25.40;59.30
1367;DHT22;16877;48.810;9.282;2023-05-08T02:00:37;25.50;59.40
1367;DHT22;16877;48.810;9.282;2023-05-08T02:03:07;25.40;59.30
1367;DHT22;16877;48.810;9.282;2023-05-08T02:05:36;25.40;59.30
1367;DHT22;16877;48.810;9.282;2023-05-08T02:08:04;25.50;59.40
1367;DHT22;16877;48.810;9.282;2023-05-08T02:10:34;25.50;59.40
1367;DHT22;16877;48.810;9.282;2023-05-08T02:13:02;25.50;59.40
1367;DHT22;16877;48.810;9.282;2023-05-08T02:15:30;25.40;59.40
1367;DHT22;16877;48.810;9.282;2023-05-08T02:18:01;25.30;59.30
1367;DHT22;16877;48.810;9.282;2023-05-08T02:20:32;25.50;59.50
1367;DHT22;16877;48.810;9.282;2023-05-08T02:23:00;25.40;59.50
1367;DHT22;16877;48.810;9.282;2023-05-08T02:25:29;25.40;59.50
1367;DHT22;16877;48.810;9.282;2023-05-08T02:27:58;25.50;59.50
1367;DHT22;16877;48.810;9.282;2023-05-08T02:30:26;25.50;59.50
1367;DHT22;16877;48.810;9.282;2023-05-08T02:32:56;25.40;59.40
1367;DHT22;16877;48.810;9.282;2023-05-08T02:35:26;25.50;59.50
1367;DHT22;16877;48.810;9.282;2023-05-08T02:37:59;25.40;59.50
1367;DHT22;16877;48.810;9.282;2023-05-08T02:40:28;25.50;59.60
1367;DHT22;16877;48.810;9.282;2023-05-08T02:42:57;25.30;59.40
1367;DHT22;16877;48.810;9.282;2023-05-08T02:45:31;25.50;59.50
1367;DHT22;16877;48.810;9.282;2023-05-08T02:48:04;25.30;59.40
1367;DHT22;16877;48.810;9.282;2023-05-08T02:50:37;25.30;59.80
1367;DHT22;16877;48.810;9.282;2023-05-08T02:53:15;25.50;59.60
1367;DHT22;16877;48.810;9.282;2023-05-08T02:55:48;25.30;59.50
1367;DHT22;16877;48.810;9.282;2023-05-08T02:58:21;25.40;59.50
1367;DHT22;16877;48.810;9.282;2023-05-08T03:00:57;25.40;59.60
1367;DHT22;16877;48.810;9.282;2023-05-08T03:03:28;25.50;59.60
1367;DHT22;16877;48.810;9.282;2023-05-08T03:06:00;25.20;59.50
1367;DHT22;16877;48.810;9.282;2023-05-08T03:08:32;25.40;59.60
1367;DHT22;16877;48.810;9.282;2023-05-08T03:11:03;25.40;59.60
1367;DHT22;16877;48.810;9.282;2023-05-08T03:13:33;25.30;59.60
1367;DHT22;16877;48.810;9.282;2023-05-08T03:16:03;25.40;59.70
1367;DHT22;16877;48.810;9.282;2023-05-08T03:18:34;25.30;59.60
1367;DHT22;16877;48.810;9.282;2023-05-08T03:21:03;25.20;59.60
1367;DHT22;16877;48.810;9.282;2023-05-08T03:23:34;25.30;59.70
1367;DHT22;16877;48.810;9.282;2023-05-08T03:26:04;25.40;59.80
1367;DHT22;16877;48.810;9.282;2023-05-08T03:28:33;25.40;59.70
1367;DHT22;16877;48.810;9.282;2023-05-08T03:31:02;25.30;59.70
1367;DHT22;16877;48.810;9.282;2023-05-08T03:33:31;25.30;59.70
1367;DHT22;16877;48.810;9.282;2023-05-08T03:36:00;25.40;59.70
1367;DHT22;16877;48.810;9.282;2023-05-08T03:38:27;25.30;59.70
1367;DHT22;16877;48.810;9.282;2023-05-08T03:40:58;25.30;59.70
1367;DHT22;16877;48.810;9.282;2023-05-08T03:43:26;25.30;59.70
1367;DHT22;16877;48.810;9.282;2023-05-08T03:45:55;25.30;59.70
1367;DHT22;16877;48.810;9.282;2023-05-08T03:48:23;25.30;59.70
1367;DHT22;16877;48.810;9.282;2023-05-08T03:50:50;25.30;59.70
1367;DHT22;16877;48.810;9.282;2023-05-08T03:53:18;25.10;59.60
1367;DHT22;16877;48.810;9.282;2023-05-08T03:55:46;25.10;59.70
1367;DHT22;16877;48.810;9.282;2023-05-08T03:58:21;25.30;59.70
1367;DHT22;16877;48.810;9.282;2023-05-08T04:00:58;25.30;59.70
1367;DHT22;16877;48.810;9.282;2023-05-08T04:03:36;25.20;59.70
1367;DHT22;16877;48.810;9.282;2023-05-08T04:06:10;25.30;59.70
1367;DHT22;16877;48.810;9.282;2023-05-08T04:08:47;25.20;59.70
1367;DHT22;16877;48.810;9.282;2023-05-08T04:11:25;25.20;59.80
1367;DHT22;16877;48.810;9.282;2023-05-08T04:14:02;25.30;59.80
1367;DHT22;16877;48.810;9.282;2023-05-08T04:16:34;25.30;59.90
1367;DHT22;16877;48.810;9.282;2023-05-08T04:19:08;25.20;59.80
1367;DHT22;16877;48.810;9.282;2023-05-08T04:21:38;25.30;59.90
1367;DHT22;16877;48.810;9.282;2023-05-08T04:24:10;25.00;59.70
1367;DHT22;16877;48.810;9.282;2023-05-08T04:26:39;25.10;59.80
1367;DHT22;16877;48.810;9.282;2023-05-08T04:29:08;25.20;59.90
1367;DHT22;16877;48.810;9.282;2023-05-08T04:31:41;25.20;59.90
1367;DHT22;16877;48.810;9.282;2023-05-08T04:34:09;25.20;59.90
1367;DHT22;16877;48.810;9.282;2023-05-08T04:36:37;25.30;59.90
1367;DHT22;16877;48.810;9.282;2023-05-08T04:39:05;25.20;59.90
1367;DHT22;16877;48.810;9.282;2023-05-08T04:41:32;25.30;60.00
1367;DHT22;16877;48.810;9.282;2023-05-08T04:44:00;25.30;60.00
1367;DHT22;16877;48.810;9.282;2023-05-08T04:46:29;25.30;59.90
1367;DHT22;16877;48.810;9.282;2023-05-08T04:48:56;25.20;59.80
1367;DHT22;16877;48.810;9.282;2023-05-08T04:51:25;25.30;60.00
1367;DHT22;16877;48.810;9.282;2023-05-08T04:53:52;25.30;60.00
1367;DHT22;16877;48.810;9.282;2023-05-08T04:56:20;25.30;60.00
1367;DHT22;16877;48.810;9.282;2023-05-08T04:58:47;25.30;60.00
1367;DHT22;16877;48.810;9.282;2023-05-08T05:01:15;25.40;60.00
1367;DHT22;16877;48.810;9.282;2023-05-08T05:03:44;25.30;59.90
1367;DHT22;16877;48.810;9.282;2023-05-08T05:06:12;25.30;59.90
1367;DHT22;16877;48.810;9.282;2023-05-08T05:08:39;25.30;59.90
1367;DHT22;16877;48.810;9.282;2023-05-08T05:11:06;25.20;59.80
1367;DHT22;16877;48.810;9.282;2023-05-08T05:13:35;25.40;59.90
1367;DHT22;16877;48.810;9.282;2023-05-08T05:16:03;25.30;59.90
1367;DHT22;16877;48.810;9.282;2023-05-08T05:18:30;25.20;60.50
1367;DHT22;16877;48.810;9.282;2023-05-08T05:20:59;25.30;59.80
1367;DHT22;16877;48.810;9.282;2023-05-08T05:23:28;25.10;59.70
1367;DHT22;16877;48.810;9.282;2023-05-08T05:25:55;25.20;59.70
1367;DHT22;16877;48.810;9.282;2023-05-08T05:28:22;25.30;59.80
1367;DHT22;16877;48.810;9.282;2023-05-08T05:30:50;25.30;59.80
1367;DHT22;16877;48.810;9.282;2023-05-08T05:33:17;25.20;59.80
1367;DHT22;16877;48.810;9.282;2023-05-08T05:35:45;25.30;59.80
1367;DHT22;16877;48.810;9.282;2023-05-08T05:38:18;25.10;59.70
1367;DHT22;16877;48.810;9.282;2023-05-08T05:40:46;25.30;59.80
1367;DHT22;16877;48.810;9.282;2023-05-08T05:43:17;25.30;59.80
1367;DHT22;16877;48.810;9.282;2023-05-08T05:45:45;25.30;59.90
1367;DHT22;16877;48.810;9.282;2023-05-08T05:48:16;25.20;59.80
1367;DHT22;16877;48.810;9.282;2023-05-08T05:50:44;25.30;59.80
1367;DHT22;16877;48.810;9.282;2023-05-08T05:53:11;25.20;59.80
1367;DHT22;16877;48.810;9.282;2023-05-08T05:55:41;25.20;59.80
1367;DHT22;16877;48.810;9.282;2023-05-08T05:58:23;25.30;59.90
1367;DHT22;16877;48.810;9.282;2023-05-08T06:00:51;25.10;59.80
1367;DHT22;16877;48.810;9.282;2023-05-08T06:03:19;25.20;59.90
1367;DHT22;16877;48.810;9.282;2023-05-08T06:05:46;25.30;60.00
1367;DHT22;16877;48.810;9.282;2023-05-08T06:08:14;25.30;60.00
1367;DHT22;16877;48.810;9.282;2023-05-08T06:10:45;25.20;60.00
1367;DHT22;16877;48.810;9.282;2023-05-08T06:13:12;25.30;60.00
1367;DHT22;16877;48.810;9.282;2023-05-08T06:15:41;25.40;60.10
1367;DHT22;16877;48.810;9.282;2023-05-08T06:18:08;25.30;60.00
1367;DHT22;16877;48.810;9.282;2023-05-08T06:20:36;25.30;60.00
1367;DHT22;16877;48.810;9.282;2023-05-08T06:23:03;25.40;60.00
1367;DHT22;16877;48.810;9.282;2023-05-08T06:25:31;25.50;60.10
1367;DHT22;16877;48.810;9.282;2023-05-08T06:28:00;25.40;60.10
1367;DHT22;16877;48.810;9.282;2023-05-08T06:30:28;25.50;60.10
1367;DHT22;16877;48.810;9.282;2023-05-08T06:32:55;25.50;60.20
1367;DHT22;16877;48.810;9.282;2023-05-08T06:35:23;25.50;60.10
1367;DHT22;16877;48.810;9.282;2023-05-08T06:37:50;25.40;60.00
1367;DHT22;16877;48.810;9.282;2023-05-08T06:40:18;25.40;60.00
1367;DHT22;16877;48.810;9.282;2023-05-08T06:42:45;25.60;60.10
1367;DHT22;16877;48.810;9.282;2023-05-08T06:45:15;25.60;60.00
1367;DHT22;16877;48.810;9.282;2023-05-08T06:47:42;25.70;60.00
1367;DHT22;16877;48.810;9.282;2023-05-08T06:50:10;25.70;60.00
1367;DHT22;16877;48.810;9.282;2023-05-08T06:52:38;25.70;60.00
1367;DHT22;16877;48.810;9.282;2023-05-08T06:55:06;25.70;60.00
1367;DHT22;16877;48.810;9.282;2023-05-08T06:57:34;25.60;59.90
1367;DHT22;16877;48.810;9.282;2023-05-08T07:00:02;25.70;59.90
1367;DHT22;16877;48.810;9.282;2023-05-08T07:02:32;25.80;59.90
1367;DHT22;16877;48.810;9.282;2023-05-08T07:05:00;25.80;59.80
1367;DHT22;16877;48.810;9.282;2023-05-08T07:07:27;25.90;59.80
1367;DHT22;16877;48.810;9.282;2023-05-08T07:09:56;26.00;59.80
1367;DHT22;16877;48.810;9.282;2023-05-08T07:12:24;26.00;59.80
1367;DHT22;16877;48.810;9.282;2023-05-08T07:14:52;26.10;59.70
1367;DHT22;16877;48.810;9.282;2023-05-08T07:17:21;26.00;59.50
1367;DHT22;16877;48.810;9.282;2023-05-08T07:19:51;26.10;59.50
1367;DHT22;16877;48.810;9.282;2023-05-08T07:22:19;26.00;59.30
1367;DHT22;16877;48.810;9.282;2023-05-08T07:24:46;26.00;59.30
1367;DHT22;16877;48.810;9.282;2023-05-08T07:27:19;26.30;59.50
1367;DHT22;16877;48.810;9.282;2023-05-08T07:29:46;26.30;59.40
1367;DHT22;16877;48.810;9.282;2023-05-08T07:32:13;26.20;59.30
1367;DHT22;16877;48.810;9.282;2023-05-08T07:34:41;26.30;59.30
1367;DHT22;16877;48.810;9.282;2023-05-08T07:37:10;26.40;59.30
1367;DHT22;16877;48.810;9.282;2023-05-08T07:39:37;26.40;59.30
1367;DHT22;16877;48.810;9.282;2023-05-08T07:42:09;26.30;59.20
1367;DHT22;16877;48.810;9.282;2023-05-08T07:44:36;26.30;59.20
1367;DHT22;16877;48.810;9.282;2023-05-08T07:47:04;26.50;59.20
1367;DHT22;16877;48.810;9.282;2023-05-08T07:49:31;26.40;58.90
1367;DHT22;16877;48.810;9.282;2023-05-08T07:51:58;26.40;58.90
1367;DHT22;16877;48.810;9.282;2023-05-08T07:54:28;26.40;58.80
1367;DHT22;16877;48.810;9.282;2023-05-08T07:56:55;26.40;58.70
1367;DHT22;16877;48.810;9.282;2023-05-08T07:59:22;26.50;58.90
1367;DHT22;16877;48.810;9.282;2023-05-08T08:01:50;26.70;59.00
1367;DHT22;16877;48.810;9.282;2023-05-08T08:04:17;26.70;59.00
1367;DHT22;16877;48.810;9.282;2023-05-08T08:06:45;26.90;59.10
1367;DHT22;16877;48.810;9.282;2023-05-08T08:09:13;26.90;59.20
1367;DHT22;16877;48.810;9.282;2023-05-08T08:11:42;26.90;59.10
1367;DHT22;16877;48.810;9.282;2023-05-08T08:14:10;27.20;59.30
1367;DHT22;16877;48.810;9.282;2023-05-08T08:16:48;27.00;59.00
1367;DHT22;16877;48.810;9.282;2023-05-08T08:19:15;27.10;58.90
1367;DHT22;16877;48.810;9.282;2023-05-08T08:21:43;27.50;59.10
1367;DHT22;16877;48.810;9.282;2023-05-08T08:24:11;27.60;58.90
1367;DHT22;16877;48.810;9.282;2023-05-08T08:26:39;27.50;58.70
1367;DHT22;16877;48.810;9.282;2023-05-08T08:29:08;27.60;58.50
1367;DHT22;16877;48.810;9.282;2023-05-08T08:31:35;27.60;58.40
1367;DHT22;16877;48.810;9.282;2023-05-08T08:34:03;27.70;58.30
1367;DHT22;16877;48.810;9.282;2023-05-08T08:36:31;27.60;58.10
1367;DHT22;16877;48.810;9.282;2023-05-08T08:38:59;27.80;58.10
1367;DHT22;16877;48.810;9.282;2023-05-08T08:41:27;27.70;57.90
1367;DHT22;16877;48.810;9.282;2023-05-08T08:43:55;27.60;57.90
1367;DHT22;16877;48.810;9.282;2023-05-08T08:46:25;27.70;57.80
1367;DHT22;16877;48.810;9.282;2023-05-08T08:48:55;27.70;57.80
1367;DHT22;16877;48.810;9.282;2023-05-08T08:51:26;27.70;57.70
1367;DHT22;16877;48.810;9.282;2023-05-08T08:54:00;27.60;57.70
1367;DHT22;16877;48.810;9.282;2023-05-08T08:56:30;27.60;57.60
1367;DHT22;16877;48.810;9.282;2023-05-08T08:58:59;27.70;57.70
1367;DHT22;16877;48.810;9.282;2023-05-08T09:01:47;27.50;57.60
1367;DHT22;16877;48.810;9.282;2023-05-08T09:04:16;27.60;57.70
1367;DHT22;16877;48.810;9.282;2023-05-08T09:06:44;27.50;57.50
1367;DHT22;16877;48.810;9.282;2023-05-08T09:09:12;27.40;57.50
1367;DHT22;16877;48.810;9.282;2023-05-08T09:11:43;27.40;57.50
1367;DHT22;16877;48.810;9.282;2023-05-08T09:14:12;27.40;57.50
1367;DHT22;16877;48.810;9.282;2023-05-08T09:16:40;27.40;57.50
1367;DHT22;16877;48.810;9.282;2023-05-08T09:19:12;27.60;57.60
1367;DHT22;16877;48.810;9.282;2023-05-08T09:21:40;27.70;57.70
1367;DHT22;16877;48.810;9.282;2023-05-08T09:24:08;27.70;57.60
1367;DHT22;16877;48.810;9.282;2023-05-08T09:26:37;27.60;57.50
1367;DHT22;16877;48.810;9.282;2023-05-08T09:29:08;27.60;57.40
1367;DHT22;16877;48.810;9.282;2023-05-08T09:31:38;27.70;57.50
1367;DHT22;16877;48.810;9.282;2023-05-08T09:34:22;27.60;57.30
1367;DHT22;16877;48.810;9.282;2023-05-08T09:36:49;27.70;57.40
1367;DHT22;16877;48.810;9.282;2023-05-08T09:39:21;27.60;57.30
1367;DHT22;16877;48.810;9.282;2023-05-08T09:41:57;27.70;57.40
1367;DHT22;16877;48.810;9.282;2023-05-08T09:44:25;27.70;57.30
1367;DHT22;16877;48.810;9.282;2023-05-08T09:47:08;27.70;57.30
1367;DHT22;16877;48.810;9.282;2023-05-08T09:49:38;27.60;57.20
1367;DHT22;16877;48.810;9.282;2023-05-08T09:52:06;27.70;57.30
1367;DHT22;16877;48.810;9.282;2023-05-08T09:54:33;27.70;57.20
1367;DHT22;16877;48.810;9.282;2023-05-08T09:57:01;27.80;57.20
1367;DHT22;16877;48.810;9.282;2023-05-08T09:59:37;28.10;57.40
1367;DHT22;16877;48.810;9.282;2023-05-08T10:02:10;28.10;57.40
1367;DHT22;16877;48.810;9.282;2023-05-08T10:04:42;28.10;57.90
1367;DHT22;16877;48.810;9.282;2023-05-08T10:07:09;28.20;57.30
1367;DHT22;16877;48.810;9.282;2023-05-08T10:09:36;28.30;57.30
1367;DHT22;16877;48.810;9.282;2023-05-08T10:12:06;28.40;57.20
1367;DHT22;16877;48.810;9.282;2023-05-08T10:14:34;28.30;57.10
1367;DHT22;16877;48.810;9.282;2023-05-08T10:17:07;28.50;57.20
1367;DHT22;16877;48.810;9.282;2023-05-08T10:19:38;28.60;57.10
1367;DHT22;16877;48.810;9.282;2023-05-08T10:22:10;28.50;56.90
1367;DHT22;16877;48.810;9.282;2023-05-08T10:24:40;28.60;56.90
1367;DHT22;16877;48.810;9.282;2023-05-08T10:27:12;28.60;56.80
1367;DHT22;16877;48.810;9.282;2023-05-08T10:29:48;28.70;56.80
1367;DHT22;16877;48.810;9.282;2023-05-08T10:32:19;28.70;56.80
1367;DHT22;16877;48.810;9.282;2023-05-08T10:34:52;28.70;56.80
1367;DHT22;16877;48.810;9.282;2023-05-08T10:37:43;28.70;56.80
1367;DHT22;16877;48.810;9.282;2023-05-08T10:40:16;28.80;56.80
1367;DHT22;16877;48.810;9.282;2023-05-08T10:42:46;28.70;56.70
1367;DHT22;16877;48.810;9.282;2023-05-08T10:45:14;28.80;56.80
1367;DHT22;16877;48.810;9.282;2023-05-08T10:47:50;28.60;56.70
1367;DHT22;16877;48.810;9.282;2023-05-08T10:50:35;28.60;56.70
1367;DHT22;16877;48.810;9.282;2023-05-08T10:53:12;28.60;56.70
1367;DHT22;16877;48.810;9.282;2023-05-08T10:55:45;28.80;56.80
1367;DHT22;16877;48.810;9.282;2023-05-08T10:58:14;28.70;56.80
1367;DHT22;16877;48.810;9.282;2023-05-08T11:01:18;28.60;56.80
1367;DHT22;16877;48.810;9.282;2023-05-08T11:03:47;28.70;56.90
1367;DHT22;16877;48.810;9.282;2023-05-08T11:06:16;28.50;56.70
1367;DHT22;16877;48.810;9.282;2023-05-08T11:08:50;28.50;56.70
1367;DHT22;16877;48.810;9.282;2023-05-08T11:11:29;28.40;56.70
1367;DHT22;16877;48.810;9.282;2023-05-08T11:14:08;28.60;56.80
1367;DHT22;16877;48.810;9.282;2023-05-08T11:17:02;28.70;56.90
1367;DHT22;16877;48.810;9.282;2023-05-08T11:19:29;28.70;56.90
1367;DHT22;16877;48.810;9.282;2023-05-08T11:22:20;28.50;56.90
1367;DHT22;16877;48.810;9.282;2023-05-08T11:24:53;28.50;56.90
1367;DHT22;16877;48.810;9.282;2023-05-08T11:27:39;28.80;57.10
1367;DHT22;16877;48.810;9.282;2023-05-08T11:30:21;28.70;57.00
1367;DHT22;16877;48.810;9.282;2023-05-08T11:33:10;29.00;57.10
1367;DHT22;16877;48.810;9.282;2023-05-08T11:35:47;29.00;57.10
1367;DHT22;16877;48.810;9.282;2023-05-08T11:38:17;29.20;57.10
1367;DHT22;16877;48.810;9.282;2023-05-08T11:40:54;29.40;57.20
1367;DHT22;16877;48.810;9.282;2023-05-08T11:46:13;30.00;57.10
1367;DHT22;16877;48.810;9.282;2023-05-08T11:48:42;30.20;56.80
1367;DHT22;16877;48.810;9.282;2023-05-08T11:51:10;30.40;56.50
1367;DHT22;16877;48.810;9.282;2023-05-08T11:53:38;30.40;56.40
1367;DHT22;16877;48.810;9.282;2023-05-08T11:56:14;30.50;56.50
1367;DHT22;16877;48.810;9.282;2023-05-08T11:58:41;31.00;56.60
1367;DHT22;16877;48.810;9.282;2023-05-08T12:01:09;31.00;56.00
1367;DHT22;16877;48.810;9.282;2023-05-08T12:03:37;31.00;55.90
1367;DHT22;16877;48.810;9.282;2023-05-08T12:06:06;31.20;55.80
1367;DHT22;16877;48.810;9.282;2023-05-08T12:08:38;31.30;55.40
1367;DHT22;16877;48.810;9.282;2023-05-08T12:11:10;31.40;55.30
1367;DHT22;16877;48.810;9.282;2023-05-08T12:13:49;31.50;50.90
1367;DHT22;16877;48.810;9.282;2023-05-08T12:16:17;31.40;50.50
1367;DHT22;16877;48.810;9.282;2023-05-08T12:18:49;31.50;50.70
1367;DHT22;16877;48.810;9.282;2023-05-08T12:21:18;31.80;52.00
1367;DHT22;16877;48.810;9.282;2023-05-08T12:23:46;32.20;51.10
1367;DHT22;16877;48.810;9.282;2023-05-08T12:26:21;32.40;51.20
1367;DHT22;16877;48.810;9.282;2023-05-08T12:28:54;32.20;51.40
1367;DHT22;16877;48.810;9.282;2023-05-08T12:31:26;32.30;51.20
1367;DHT22;16877;48.810;9.282;2023-05-08T12:33:53;32.40;51.10
1367;DHT22;16877;48.810;9.282;2023-05-08T12:36:22;32.70;51.20
1367;DHT22;16877;48.810;9.282;2023-05-08T12:39:16;33.20;51.00
1367;DHT22;16877;48.810;9.282;2023-05-08T12:41:57;33.60;50.70
1367;DHT22;16877;48.810;9.282;2023-05-08T12:44:26;33.50;48.60
1367;DHT22;16877;48.810;9.282;2023-05-08T12:46:54;33.00;48.50
1367;DHT22;16877;48.810;9.282;2023-05-08T12:49:25;33.00;48.80
1367;DHT22;16877;48.810;9.282;2023-05-08T12:52:03;33.10;48.90
1367;DHT22;16877;48.810;9.282;2023-05-08T12:54:35;33.00;49.20
1367;DHT22;16877;48.810;9.282;2023-05-08T12:57:09;32.90;48.80
1367;DHT22;16877;48.810;9.282;2023-05-08T12:59:37;32.90;48.60
1367;DHT22;16877;48.810;9.282;2023-05-08T13:02:11;33.20;48.60
1367;DHT22;16877;48.810;9.282;2023-05-08T13:04:38;33.30;47.80
1367;DHT22;16877;48.810;9.282;2023-05-08T13:07:06;33.60;48.10
1367;DHT22;16877;48.810;9.282;2023-05-08T13:09:35;34.00;48.20
1367;DHT22;16877;48.810;9.282;2023-05-08T13:12:03;34.10;47.60
1367;DHT22;16877;48.810;9.282;2023-05-08T13:14:33;34.30;47.40
1367;DHT22;16877;48.810;9.282;2023-05-08T13:17:00;34.30;46.80
1367;DHT22;16877;48.810;9.282;2023-05-08T13:19:28;34.80;46.90
1367;DHT22;16877;48.810;9.282;2023-05-08T13:21:55;35.00;46.50
1367;DHT22;16877;48.810;9.282;2023-05-08T13:24:23;34.90;46.10
1367;DHT22;16877;48.810;9.282;2023-05-08T13:26:50;35.00;45.70
1367;DHT22;16877;48.810;9.282;2023-05-08T13:29:18;34.90;45.50
1367;DHT22;16877;48.810;9.282;2023-05-08T13:31:48;34.80;45.40
1367;DHT22;16877;48.810;9.282;2023-05-08T13:34:15;35.10;45.60
1367;DHT22;16877;48.810;9.282;2023-05-08T13:36:43;34.90;46.10
1367;DHT22;16877;48.810;9.282;2023-05-08T13:39:12;34.60;45.20
1367;DHT22;16877;48.810;9.282;2023-05-08T13:41:40;34.60;45.20
1367;DHT22;16877;48.810;9.282;2023-05-08T13:44:07;34.30;45.20
1367;DHT22;16877;48.810;9.282;2023-05-08T13:46:35;34.20;45.40
1367;DHT22;16877;48.810;9.282;2023-05-08T13:49:15;33.80;45.50
1367;DHT22;16877;48.810;9.282;2023-05-08T13:51:43;33.50;45.80
1367;DHT22;16877;48.810;9.282;2023-05-08T13:54:11;33.30;46.10
1367;DHT22;16877;48.810;9.282;2023-05-08T13:56:40;33.10;46.40
1367;DHT22;16877;48.810;9.282;2023-05-08T13:59:08;32.60;46.60
1367;DHT22;16877;48.810;9.282;2023-05-08T14:01:37;32.50;47.20
1367;DHT22;16877;48.810;9.282;2023-05-08T14:04:04;32.60;47.60
1367;DHT22;16877;48.810;9.282;2023-05-08T14:06:33;32.70;47.80
1367;DHT22;16877;48.810;9.282;2023-05-08T14:09:01;32.70;47.90
1367;DHT22;16877;48.810;9.282;2023-05-08T14:11:29;32.60;47.70
1367;DHT22;16877;48.810;9.282;2023-05-08T14:13:56;32.40;47.70
1367;DHT22;16877;48.810;9.282;2023-05-08T14:16:24;32.50;47.80
1367;DHT22;16877;48.810;9.282;2023-05-08T14:18:51;32.40;47.60
1367;DHT22;16877;48.810;9.282;2023-05-08T14:21:19;32.10;47.50
1367;DHT22;16877;48.810;9.282;2023-05-08T14:23:49;31.90;47.60
1367;DHT22;16877;48.810;9.282;2023-05-08T14:26:17;32.00;47.80
1367;DHT22;16877;48.810;9.282;2023-05-08T14:28:44;32.00;47.90
1367;DHT22;16877;48.810;9.282;2023-05-08T14:31:11;31.70;47.80
1367;DHT22;16877;48.810;9.282;2023-05-08T14:33:38;31.70;48.00
1367;DHT22;16877;48.810;9.282;2023-05-08T14:36:07;31.60;48.40
1367;DHT22;16877;48.810;9.282;2023-05-08T14:38:35;31.50;48.40
1367;DHT22;16877;48.810;9.282;2023-05-08T14:41:04;31.30;48.40
1367;DHT22;16877;48.810;9.282;2023-05-08T14:43:31;31.40;48.60
1367;DHT22;16877;48.810;9.282;2023-05-08T14:45:59;31.30;48.60
1367;DHT22;16877;48.810;9.282;2023-05-08T14:48:26;31.20;48.80
1367;DHT22;16877;48.810;9.282;2023-05-08T14:50:55;31.00;48.70
1367;DHT22;16877;48.810;9.282;2023-05-08T14:53:23;31.10;49.20
1367;DHT22;16877;48.810;9.282;2023-05-08T14:55:50;31.10;49.00
1367;DHT22;16877;48.810;9.282;2023-05-08T14:58:20;31.00;48.90
1367;DHT22;16877;48.810;9.282;2023-05-08T15:00:48;30.90;49.00
1367;DHT22;16877;48.810;9.282;2023-05-08T15:03:15;30.60;49.00
1367;DHT22;16877;48.810;9.282;2023-05-08T15:05:43;30.70;49.20
1367;DHT22;16877;48.810;9.282;2023-05-08T15:08:11;30.50;49.30
1367;DHT22;16877;48.810;9.282;2023-05-08T15:10:40;30.50;49.60
1367;DHT22;16877;48.810;9.282;2023-05-08T15:13:07;30.50;49.80
1367;DHT22;16877;48.810;9.282;2023-05-08T15:15:36;30.30;50.00
1367;DHT22;16877;48.810;9.282;2023-05-08T15:18:04;30.30;50.40
1367;DHT22;16877;48.810;9.282;2023-05-08T15:20:31;30.30;50.50
1367;DHT22;16877;48.810;9.282;2023-05-08T15:22:59;30.40;50.70
1367;DHT22;16877;48.810;9.282;2023-05-08T15:25:28;30.30;50.60
1367;DHT22;16877;48.810;9.282;2023-05-08T15:27:56;30.40;50.80
1367;DHT22;16877;48.810;9.282;2023-05-08T15:30:24;30.30;50.70
1367;DHT22;16877;48.810;9.282;2023-05-08T15:32:55;30.40;50.80
1367;DHT22;16877;48.810;9.282;2023-05-08T15:35:23;30.50;51.50
1367;DHT22;16877;48.810;9.282;2023-05-08T15:37:55;30.70;52.20
1367;DHT22;16877;48.810;9.282;2023-05-08T15:40:30;30.70;52.40
1367;DHT22;16877;48.810;9.282;2023-05-08T15:42:58;30.70;52.60
1367;DHT22;16877;48.810;9.282;2023-05-08T15:45:34;30.90;52.90
1367;DHT22;16877;48.810;9.282;2023-05-08T15:48:03;30.80;52.70
1367;DHT22;16877;48.810;9.282;2023-05-08T15:50:31;31.10;52.60
1367;DHT22;16877;48.810;9.282;2023-05-08T15:52:59;31.40;52.30
1367;DHT22;16877;48.810;9.282;2023-05-08T15:55:27;31.50;52.00
1367;DHT22;16877;48.810;9.282;2023-05-08T15:57:55;31.50;51.70
1367;DHT22;16877;48.810;9.282;2023-05-08T16:00:23;31.70;51.50
1367;DHT22;16877;48.810;9.282;2023-05-08T16:02:50;31.80;51.20
1367;DHT22;16877;48.810;9.282;2023-05-08T16:05:21;32.00;51.10
1367;DHT22;16877;48.810;9.282;2023-05-08T16:07:49;32.00;50.70